Hlavní strana
METAR-TAF:

METAR-TAF

Letiště :

Providencia Island, Kolumbie

zeměpisná šířka: 13-22N, zeměpisná délka: 081-21W, výška: 6 m

Aktuální stav počasí

Zpráva byla vytvořena před 1 hodinou a 12 minutami, v 13:00 UTC
vítr z různých směrů 2 kt
Teplota 23°C
Vlhkost vzduchu 89%
Tlak 1014 hPa
Viditelnost 10 km a více
Skoro jasno ve výšce 1700 ft

METAR: SKPV 281300Z VRB02KT 9999 FEW017 23/21 A2995

Čas: 09:12 (14:12 UTC)


TAF: chybějící

Stav a předpovědi počasí z více než 4 000 letišť (zprávy METAR a TAF).

Červené a žluté tečky na mapě představují dostupné meteorologické stanice.

Když kurzor umístíte na tečku, zobrazí se název stanice.

Pak kliknutím zobrazíte stav a předpověď počasí.

Chcete-li změnit mapu, kliknutím na zelené tlačítko se znaménkem +mapu přiblížíte, kliknutím na zelené tlačítko se znaménkem – mapu oddálíte a kliknutím na zelené šipky přejdete na sousední mapy.


METAR-TAF: